Time;durP1;ratioP1;P1;durP2;ratioP2;P2;SDS_P1;SDS_P2;PMS_P1;PMS_P2;Temp;Humidity;BMP_temperature;BMP_pressure;BME280_temperature;BME280_humidity;BME280_pressure;Samples;Min_cycle;Max_cycle;Signal;HPM_P1;HPM_P2
2023/04/19 05:22:32;;;;;;;24.90;15.40;;;;;;;8.08;78.96;95147.65;104565;1298;557489;-65
2023/04/19 05:25:02;;;;;;;50.60;26.60;;;;;;;8.26;78.69;95143.36;105969;1286;166726;-67
2023/04/19 05:27:31;;;;;;;53.90;28.70;;;;;;;8.29;78.73;95142.95;107113;1274;22567;-66
2023/04/19 05:29:59;;;;;;;42.50;23.00;;;;;;;8.34;78.85;95141.27;107003;1275;25214;-67
2023/04/19 05:32:28;;;;;;;19.90;13.50;;;;;;;8.34;79.28;95138.83;107024;1268;24047;-69
2023/04/19 05:34:58;;;;;;;18.80;12.90;;;;;;;8.36;79.63;95138.96;107061;1274;25262;-68
2023/04/19 05:37:29;;;;;;;15.20;10.40;;;;;;;8.46;79.40;95136.89;107088;1274;25312;-68
2023/04/19 05:39:58;;;;;;;26.40;19.60;;;;;;;8.60;79.60;95140.50;107063;1274;22650;-66
2023/04/19 05:42:26;;;;;;;22.90;16.50;;;;;;;8.81;79.24;95139.23;107067;1274;22519;-67
2023/04/19 05:44:54;;;;;;;20.80;17.60;;;;;;;8.96;78.44;95139.13;107131;1274;25399;-66
2023/04/19 05:47:22;;;;;;;10.60;7.10;;;;;;;9.09;77.94;95140.09;107047;1269;24231;-68
2023/04/19 05:49:57;;;;;;;11.80;6.50;;;;;;;9.17;76.80;95134.33;107038;1272;22520;-68
2023/04/19 05:52:30;;;;;;;11.60;7.40;;;;;;;9.21;76.21;95136.17;106647;1275;24217;-72
2023/04/19 05:55:00;;;;;;;8.40;5.90;;;;;;;9.30;76.32;95134.05;106699;1276;25303;-72
2023/04/19 05:57:29;;;;;;;9.50;5.00;;;;;;;9.39;75.97;95136.84;106643;1276;24285;-67
2023/04/19 05:59:57;;;;;;;8.60;5.90;;;;;;;9.51;76.10;95132.56;106694;1276;22531;-70
2023/04/19 06:02:40;;;;;;;9.80;5.40;;;;;;;9.66;75.45;95131.70;106654;1276;25221;-69
2023/04/19 06:05:11;;;;;;;9.60;6.30;;;;;;;9.66;74.24;95131.34;106679;1276;23724;-67
2023/04/19 06:07:39;;;;;;;10.80;6.30;;;;;;;9.68;73.93;95134.98;106685;1276;22521;-70
2023/04/19 06:10:22;;;;;;;10.30;6.30;;;;;;;9.69;72.47;95135.13;106391;1276;24082;-67
2023/04/19 06:12:50;;;;;;;9.80;6.10;;;;;;;9.66;72.94;95135.21;106653;1276;25472;-65
2023/04/19 06:15:18;;;;;;;8.40;5.80;;;;;;;9.69;71.09;95133.90;106612;1276;24247;-67
2023/04/19 06:17:46;;;;;;;8.90;5.80;;;;;;;9.68;69.70;95131.83;106565;1276;22956;-68
2023/04/19 06:20:14;;;;;;;9.50;6.40;;;;;;;9.71;69.73;95134.91;106611;1276;22936;-64
2023/04/19 06:22:47;;;;;;;10.50;5.40;;;;;;;9.74;69.31;95138.02;106554;1276;22528;-67
2023/04/19 06:25:15;;;;;;;13.90;8.60;;;;;;;9.69;68.09;95134.95;106593;1276;25207;-68
2023/04/19 06:27:43;;;;;;;10.40;7.10;;;;;;;9.71;68.45;95136.32;106706;1260;22520;-67
2023/04/19 06:30:12;;;;;;;8.80;5.40;;;;;;;9.71;67.43;95137.55;106850;1272;22663;-65
2023/04/19 06:32:41;;;;;;;9.90;5.70;;;;;;;9.73;67.87;95136.98;106770;1272;22530;-65
2023/04/19 06:35:10;;;;;;;8.20;5.90;;;;;;;9.82;67.76;95132.57;106510;1275;25393;-67
2023/04/19 06:37:38;;;;;;;11.80;6.40;;;;;;;9.90;68.02;95133.27;106803;1272;25388;-71
2023/04/19 06:40:07;;;;;;;9.60;5.80;;;;;;;10.04;68.17;95134.49;106830;1275;25495;-68
2023/04/19 06:42:38;;;;;;;12.60;5.40;;;;;;;10.11;66.97;95133.45;106821;1275;25312;-67
2023/04/19 06:45:07;;;;;;;7.20;5.10;;;;;;;10.15;66.98;95131.95;106761;1274;22587;-71
2023/04/19 06:47:35;;;;;;;10.60;5.40;;;;;;;10.21;66.73;95131.45;106700;1276;23202;-69
2023/04/19 06:50:04;;;;;;;9.90;5.90;;;;;;;10.27;66.57;95129.73;106762;1276;22571;-66
2023/04/19 06:52:33;;;;;;;11.40;5.70;;;;;;;10.37;66.41;95131.08;107055;1276;22518;-68
2023/04/19 06:55:01;;;;;;;6.80;4.70;;;;;;;10.42;65.56;95130.61;106975;1276;25221;-69
2023/04/19 06:57:29;;;;;;;10.40;5.80;;;;;;;10.44;65.05;95125.11;106878;1276;23008;-66
2023/04/19 06:59:59;;;;;;;8.70;5.10;;;;;;;10.47;64.58;95126.26;106747;1276;24252;-66
2023/04/19 07:02:27;;;;;;;7.10;4.70;;;;;;;10.52;65.00;95122.27;106977;1276;22566;-63
2023/04/19 07:04:55;;;;;;;8.80;4.50;;;;;;;10.59;64.44;95123.32;106701;1276;24212;-63
2023/04/19 07:07:24;;;;;;;81.80;33.00;;;;;;;10.66;63.95;95123.13;106458;1275;24210;-66
2023/04/19 07:09:52;;;;;;;35.40;14.90;;;;;;;10.73;63.96;95122.05;106606;1275;23467;-67
2023/04/19 07:12:20;;;;;;;16.70;8.60;;;;;;;10.84;63.59;95123.71;106653;1275;23006;-66
2023/04/19 07:14:55;;;;;;;11.20;5.80;;;;;;;10.98;64.07;95127.55;106588;1275;24243;-66
2023/04/19 07:17:23;;;;;;;15.50;13.40;;;;;;;11.05;62.69;95125.04;106877;1275;22513;-67
2023/04/19 07:19:51;;;;;;;9.70;6.40;;;;;;;11.10;62.98;95122.62;106758;1275;24240;-63
2023/04/19 07:22:21;;;;;;;8.20;6.10;;;;;;;11.22;63.27;95123.34;106501;1275;25911;-67
2023/04/19 07:24:50;;;;;;;7.90;5.00;;;;;;;11.40;63.57;95125.28;106606;1275;22664;-66
2023/04/19 07:27:19;;;;;;;12.10;7.80;;;;;;;11.52;63.01;95123.88;106966;1275;22527;-70
2023/04/19 07:29:47;;;;;;;10.50;4.60;;;;;;;11.70;63.04;95123.36;106776;1270;22527;-67
2023/04/19 07:32:15;;;;;;;7.50;5.10;;;;;;;11.85;61.82;95120.79;106694;1275;25287;-65
2023/04/19 07:34:45;;;;;;;17.80;14.70;;;;;;;12.10;62.76;95124.27;106873;1275;24052;-64
2023/04/19 07:37:13;;;;;;;8.50;6.90;;;;;;;12.38;62.98;95124.23;107025;1275;22942;-65
2023/04/19 07:39:41;;;;;;;11.10;6.00;;;;;;;12.54;61.05;95123.70;106958;1275;24256;-64
2023/04/19 07:42:09;;;;;;;10.40;7.60;;;;;;;12.57;61.36;95121.47;106904;1275;22534;-65
2023/04/19 07:44:37;;;;;;;9.20;7.50;;;;;;;12.71;61.30;95121.50;106514;1275;24239;-68
2023/04/19 07:47:05;;;;;;;11.00;7.50;;;;;;;12.88;61.56;95117.41;106683;1275;24309;-65
2023/04/19 07:49:33;;;;;;;13.50;7.00;;;;;;;13.08;61.36;95113.52;106680;1275;22536;-64
2023/04/19 07:52:01;;;;;;;18.80;5.60;;;;;;;13.20;60.92;95110.27;106547;1275;25627;-64
2023/04/19 07:54:31;;;;;;;8.60;5.50;;;;;;;13.28;60.83;95108.03;107077;1275;22636;-67
2023/04/19 07:56:59;;;;;;;11.20;7.00;;;;;;;13.31;59.79;95108.63;106892;1275;25370;-64
2023/04/19 07:59:27;;;;;;;16.10;6.40;;;;;;;13.27;59.71;95113.56;106525;1275;22524;-65
2023/04/19 08:01:56;;;;;;;10.60;5.10;;;;;;;13.28;60.80;95113.88;106544;1275;24352;-65
2023/04/19 08:04:24;;;;;;;9.90;5.70;;;;;;;13.33;60.59;95110.32;106759;1275;22569;-65
2023/04/19 08:06:53;;;;;;;9.70;5.50;;;;;;;13.38;60.48;95105.56;106645;1275;24346;-65
2023/04/19 08:09:21;;;;;;;9.20;5.60;;;;;;;13.43;59.90;95105.20;106786;1275;25475;-72
2023/04/19 08:11:50;;;;;;;18.30;12.20;;;;;;;13.53;60.36;95104.30;106660;1275;22504;-67
2023/04/19 08:14:18;;;;;;;7.30;5.20;;;;;;;13.72;60.10;95103.55;110398;1275;22178;-65
2023/04/19 08:16:59;;;;;;;10.30;5.20;;;;;;;13.83;59.79;95100.84;107944;1275;24249;-65
2023/04/19 08:19:30;;;;;;;12.20;10.30;;;;;;;13.78;57.88;95095.73;106960;1275;22524;-63
2023/04/19 08:21:59;;;;;;;9.70;5.40;;;;;;;13.83;58.43;95097.83;106394;1275;24199;-65
2023/04/19 08:24:27;;;;;;;10.70;5.70;;;;;;;14.03;58.40;95087.50;106153;1275;22520;-65
2023/04/19 08:26:55;;;;;;;8.00;4.90;;;;;;;14.21;58.17;95090.10;107110;1269;24403;-67
2023/04/19 08:29:26;;;;;;;9.70;6.40;;;;;;;14.33;56.72;95080.96;106893;1276;22523;-66
2023/04/19 08:31:55;;;;;;;8.70;5.40;;;;;;;14.46;56.85;95075.98;106485;1276;22557;-65
2023/04/19 08:34:23;;;;;;;7.30;5.00;;;;;;;14.64;56.48;95075.06;106573;1272;22571;-65
2023/04/19 08:36:51;;;;;;;7.10;4.30;;;;;;;14.78;55.31;95070.79;106485;1273;25218;-64
2023/04/19 08:39:32;;;;;;;12.80;9.30;;;;;;;14.73;54.31;95075.22;106522;1275;22801;-65
2023/04/19 08:42:05;;;;;;;6.30;5.00;;;;;;;14.66;54.84;95075.71;106501;1266;24495;-65
2023/04/19 08:44:46;;;;;;;;;;;;;;;14.52;55.37;95076.11;106280;1271;25424;-63
2023/04/19 08:47:18;;;;;;;8.20;6.10;;;;;;;14.42;55.94;95077.95;106501;1276;25220;-65
2023/04/19 08:50:04;;;;;;;10.10;6.30;;;;;;;14.40;56.25;95075.36;106356;1276;23925;-64
2023/04/19 08:52:52;;;;;;;7.70;5.00;;;;;;;14.28;55.89;95080.64;106616;1276;24222;-66
2023/04/19 08:55:33;;;;;;;8.10;5.50;;;;;;;14.14;56.01;95080.13;106709;1276;24343;-63
2023/04/19 08:58:03;;;;;;;7.80;6.40;;;;;;;13.98;55.95;95077.61;106766;1276;22740;-64
2023/04/19 09:00:40;;;;;;;7.00;5.90;;;;;;;13.82;56.56;95076.64;106817;1276;24374;-69
2023/04/19 09:03:08;;;;;;;5.80;4.50;;;;;;;13.69;56.69;95078.21;106980;1269;24250;-65
2023/04/19 09:05:37;;;;;;;6.00;4.50;;;;;;;13.56;56.70;95078.22;106872;1272;22519;-64
2023/04/19 09:08:28;;;;;;;6.20;5.10;;;;;;;13.39;56.69;95078.31;106897;1275;25337;-64
2023/04/19 09:10:58;;;;;;;8.30;5.50;;;;;;;13.21;56.75;95076.48;106878;1275;25348;-64
2023/04/19 09:13:28;;;;;;;22.70;14.80;;;;;;;13.06;57.03;95076.31;106764;1275;25399;-64
2023/04/19 09:15:59;;;;;;;13.10;8.40;;;;;;;12.92;57.77;95079.29;106609;1275;22636;-64
2023/04/19 09:18:28;;;;;;;12.50;8.80;;;;;;;12.78;59.06;95082.46;106536;1275;22531;-65
2023/04/19 09:21:00;;;;;;;10.50;6.50;;;;;;;12.64;60.20;95082.80;106442;1275;22659;-66
2023/04/19 09:23:28;;;;;;;8.50;5.40;;;;;;;12.52;60.50;95088.64;106534;1275;22540;-64
2023/04/19 09:26:01;;;;;;;8.40;5.20;;;;;;;12.45;60.75;95086.79;106625;1275;24340;-65
2023/04/19 09:28:32;;;;;;;9.40;5.80;;;;;;;12.42;60.92;95085.63;106517;1276;24406;-65
2023/04/19 09:31:12;;;;;;;10.80;6.90;;;;;;;12.39;60.41;95088.73;106463;1276;23166;-64
2023/04/19 09:34:15;;;;;;;15.20;9.70;;;;;;;12.39;61.22;95088.93;106528;1276;22557;-64
2023/04/19 09:36:43;;;;;;;7.20;4.80;;;;;;;12.41;60.90;95088.33;106536;1276;22524;-65
2023/04/19 09:39:13;;;;;;;7.70;5.30;;;;;;;12.43;61.25;95089.66;107415;1276;22528;-65
2023/04/19 09:41:52;;;;;;;9.50;6.60;;;;;;;12.42;61.63;95088.45;108344;1276;22661;-64
2023/04/19 09:44:21;;;;;;;9.00;5.50;;;;;;;12.36;61.08;95088.64;106597;1271;22537;-64
2023/04/19 09:47:28;;;;;;;8.10;5.50;;;;;;;12.38;61.10;95089.80;106560;1276;22531;-64
2023/04/19 09:50:08;;;;;;;10.30;6.70;;;;;;;12.37;61.61;95090.58;106551;1276;24207;-64
2023/04/19 09:52:51;;;;;;;12.20;6.40;;;;;;;12.33;61.50;95092.65;106587;1276;22679;-64
2023/04/19 09:55:21;;;;;;;8.80;6.80;;;;;;;12.31;62.01;95093.96;106643;1276;24239;-64
2023/04/19 09:57:56;;;;;;;10.50;6.00;;;;;;;12.33;62.04;95094.58;106614;1276;22524;-66
2023/04/19 10:00:24;;;;;;;7.80;6.60;;;;;;;12.35;60.64;95094.52;106531;1276;25585;-64
2023/04/19 10:02:56;;;;;;;6.20;5.60;;;;;;;12.34;60.48;95097.02;106669;1276;23894;-64
2023/04/19 10:05:26;;;;;;;9.10;6.70;;;;;;;12.34;60.89;95092.27;106612;1276;25278;-64
2023/04/19 10:07:58;;;;;;;8.80;6.70;;;;;;;12.33;60.86;95094.73;106628;1276;24360;-64
2023/04/19 10:10:29;;;;;;;10.50;6.80;;;;;;;12.32;60.67;95092.13;106658;1276;22538;-64
2023/04/19 10:13:03;;;;;;;10.10;7.40;;;;;;;12.33;60.47;95092.81;106563;1258;23588;-64
2023/04/19 10:15:36;;;;;;;8.20;6.20;;;;;;;12.32;60.54;95098.83;106575;1276;22604;-64
2023/04/19 10:18:07;;;;;;;;;;;;;;;12.24;61.99;95100.88;106621;1276;22505;-64
2023/04/19 10:21:00;;;;;;;6.00;4.80;;;;;;;11.97;63.19;95105.98;106656;1276;22559;-64
2023/04/19 10:23:31;;;;;;;8.00;5.10;;;;;;;11.71;64.47;95106.05;106525;1276;24281;-64
2023/04/19 10:25:59;;;;;;;8.30;5.20;;;;;;;11.43;65.49;95110.22;106620;1276;22593;-64
2023/04/19 10:28:29;;;;;;;8.60;5.70;;;;;;;11.16;66.11;95114.73;106584;1276;25399;-64
2023/04/19 10:31:02;;;;;;;7.30;4.10;;;;;;;10.92;66.69;95121.38;106598;1276;22632;-64
2023/04/19 10:33:35;;;;;;;6.80;4.30;;;;;;;10.73;67.03;95118.54;106630;1276;22534;-64
2023/04/19 10:36:07;;;;;;;6.60;4.60;;;;;;;10.66;66.13;95116.98;106633;1276;22520;-64
2023/04/19 10:38:54;;;;;;;5.00;3.70;;;;;;;10.63;66.16;95115.11;106560;1276;22535;-64
2023/04/19 10:41:22;;;;;;;5.40;4.00;;;;;;;10.61;65.88;95117.11;106421;1276;23879;-64
2023/04/19 10:43:53;;;;;;;9.20;5.80;;;;;;;10.50;66.46;95119.16;106434;1276;22958;-64
2023/04/19 10:46:24;;;;;;;12.70;6.90;;;;;;;10.45;67.04;95117.89;106574;1276;22571;-64
2023/04/19 10:48:57;;;;;;;10.10;6.20;;;;;;;10.42;67.61;95119.88;106577;1276;22533;-64
2023/04/19 10:51:27;;;;;;;7.80;6.10;;;;;;;10.37;67.65;95124.58;106592;1276;22560;-64
2023/04/19 10:54:29;;;;;;;5.30;3.80;;;;;;;10.31;68.48;95121.91;106660;1276;22526;-64
2023/04/19 10:57:04;;;;;;;14.50;7.80;;;;;;;10.25;69.86;95121.87;106595;1276;22531;-64
2023/04/19 10:59:39;;;;;;;18.80;9.40;;;;;;;10.27;70.71;95126.21;106392;1276;24253;-64
2023/04/19 11:02:23;;;;;;;38.70;16.90;;;;;;;10.33;70.24;95124.15;106578;1276;25128;-64
2023/04/19 11:04:52;;;;;;;24.30;12.20;;;;;;;10.41;69.89;95126.77;106602;1276;22650;-64
2023/04/19 11:07:21;;;;;;;23.20;13.20;;;;;;;10.47;69.71;95128.73;106539;1276;22524;-64
2023/04/19 11:09:50;;;;;;;33.10;17.40;;;;;;;10.50;69.66;95129.52;106541;1276;22641;-64
2023/04/19 11:12:20;;;;;;;32.20;19.30;;;;;;;10.49;69.83;95127.46;106562;1276;25268;-64
2023/04/19 11:14:59;;;;;;;27.40;13.20;;;;;;;10.52;70.50;95132.81;106471;1276;25328;-64
2023/04/19 11:17:30;;;;;;;21.40;12.40;;;;;;;10.45;70.95;95133.52;106628;1276;25237;-64
2023/04/19 11:20:06;;;;;;;21.90;11.20;;;;;;;10.42;71.52;95132.19;106476;1276;23154;-64
2023/04/19 11:22:42;;;;;;;57.00;24.40;;;;;;;10.33;72.83;95132.77;106596;1276;24261;-64
2023/04/19 11:25:16;;;;;;;27.80;14.50;;;;;;;10.22;73.39;95135.48;106610;1276;25335;-64
2023/04/19 11:27:46;;;;;;;20.50;12.40;;;;;;;10.12;74.08;95137.28;106607;1276;24043;-64
2023/04/19 11:30:19;;;;;;;16.30;9.10;;;;;;;10.10;74.10;95137.69;106620;1267;22524;-64
2023/04/19 11:32:57;;;;;;;19.90;10.80;;;;;;;10.10;74.35;95140.33;106617;1276;24264;-65
2023/04/19 11:35:27;;;;;;;22.20;12.60;;;;;;;10.05;74.28;95141.35;106602;1276;25221;-64
2023/04/19 11:37:58;;;;;;;34.60;16.90;;;;;;;9.97;74.59;95142.55;106557;1276;25593;-64
2023/04/19 11:40:26;;;;;;;44.50;19.90;;;;;;;9.95;74.18;95143.49;106729;1276;22639;-64
2023/04/19 11:43:00;;;;;;;13.30;9.50;;;;;;;9.92;74.77;95141.81;106696;1276;24169;-65
2023/04/19 11:45:31;;;;;;;6.60;5.10;;;;;;;9.91;73.87;95140.44;106608;1276;24364;-64
2023/04/19 11:48:12;;;;;;;5.80;4.40;;;;;;;9.88;73.72;95144.20;106543;1276;24053;-65
2023/04/19 11:50:43;;;;;;;10.60;4.50;;;;;;;9.84;74.15;95140.23;106482;1276;24381;-64
2023/04/19 11:53:21;;;;;;;9.30;4.70;;;;;;;9.83;75.24;95143.09;106530;1276;22531;-64
2023/04/19 11:55:57;;;;;;;5.60;4.20;;;;;;;9.86;76.46;95140.54;106577;1276;24386;-64
2023/04/19 11:58:35;;;;;;;8.00;4.20;;;;;;;9.97;76.78;95136.79;106632;1276;22648;-64
2023/04/19 12:01:14;;;;;;;5.80;4.50;;;;;;;10.06;77.08;95140.08;106633;1276;22671;-64
2023/04/19 12:03:49;;;;;;;12.00;9.10;;;;;;;10.11;78.39;95137.67;106581;1276;25388;-64
2023/04/19 12:06:26;;;;;;;8.50;5.40;;;;;;;10.12;78.35;95137.66;106577;1276;22557;-64
2023/04/19 12:08:55;;;;;;;8.40;4.50;;;;;;;10.07;77.31;95137.24;106503;1276;22536;-64
2023/04/19 12:11:40;;;;;;;9.20;5.20;;;;;;;10.01;77.43;95140.20;106623;1276;22595;-64
2023/04/19 12:14:10;;;;;;;12.60;6.50;;;;;;;10.04;77.78;95137.49;106564;1276;22529;-64
2023/04/19 12:16:39;;;;;;;13.80;8.90;;;;;;;10.01;78.08;95138.45;106508;1276;22535;-64
2023/04/19 12:19:19;;;;;;;19.40;11.10;;;;;;;10.07;78.82;95135.84;106626;1276;22536;-64
2023/04/19 12:21:47;;;;;;;17.40;9.40;;;;;;;10.12;79.92;95136.05;106603;1276;22607;-65
2023/04/19 12:24:16;;;;;;;16.60;10.40;;;;;;;10.19;79.79;95138.35;106603;1276;22638;-64
2023/04/19 12:26:59;;;;;;;18.60;10.70;;;;;;;10.29;80.12;95140.09;106585;1276;24249;-64
2023/04/19 12:29:29;;;;;;;19.90;10.90;;;;;;;10.35;80.56;95138.36;106591;1276;25315;-64
2023/04/19 12:31:58;;;;;;;20.70;11.90;;;;;;;10.39;80.06;95135.96;106614;1276;22523;-64
2023/04/19 12:34:26;;;;;;;21.10;13.00;;;;;;;10.44;79.47;95138.64;106655;1276;22521;-64
2023/04/19 12:36:55;;;;;;;26.60;17.40;;;;;;;10.49;79.31;95138.71;106658;1276;25370;-64
2023/04/19 12:39:24;;;;;;;20.10;12.50;;;;;;;10.56;79.16;95139.56;106614;1276;22527;-64
2023/04/19 12:41:52;;;;;;;18.80;12.20;;;;;;;10.65;78.91;95137.23;106656;1276;22534;-64
2023/04/19 12:44:20;;;;;;;16.70;11.90;;;;;;;10.70;78.81;95132.54;106553;1276;22537;-64
2023/04/19 12:46:48;;;;;;;16.60;11.00;;;;;;;10.70;78.67;95137.98;106583;1276;24260;-64
2023/04/19 12:49:18;;;;;;;13.80;10.30;;;;;;;10.62;77.89;95134.31;106730;1276;22651;-64
2023/04/19 12:51:47;;;;;;;18.10;10.40;;;;;;;10.53;77.79;95137.55;106819;1276;22798;-64
2023/04/19 12:54:15;;;;;;;15.50;9.80;;;;;;;10.48;77.49;95134.88;106576;1276;22781;-64
2023/04/19 12:56:43;;;;;;;19.60;11.60;;;;;;;10.45;77.72;95131.06;106606;1276;24363;-64
2023/04/19 12:59:11;;;;;;;21.10;11.60;;;;;;;10.45;78.20;95134.77;106545;1276;24444;-64
2023/04/19 13:01:39;;;;;;;20.20;13.20;;;;;;;10.44;79.11;95129.85;106746;1276;24366;-64
2023/04/19 13:04:10;;;;;;;18.70;12.70;;;;;;;10.44;78.91;95129.69;106747;1276;24200;-64
2023/04/19 13:06:39;;;;;;;22.30;14.30;;;;;;;10.44;79.22;95127.39;106744;1276;22527;-64
2023/04/19 13:09:08;;;;;;;25.80;17.30;;;;;;;10.47;79.41;95132.09;106740;1276;22514;-64
2023/04/19 13:11:39;;;;;;;26.00;17.40;;;;;;;10.47;79.04;95132.08;106799;1276;22527;-64
2023/04/19 13:14:07;;;;;;;24.20;17.30;;;;;;;10.46;79.13;95131.21;106597;1276;22521;-66
2023/04/19 13:16:35;;;;;;;30.00;18.80;;;;;;;10.41;79.05;95126.58;106631;1267;22804;-64
2023/04/19 13:19:04;;;;;;;32.20;17.50;;;;;;;10.40;78.95;95129.79;106766;1276;25379;-64
2023/04/19 13:21:32;;;;;;;27.70;15.60;;;;;;;10.40;79.09;95130.65;106762;1276;22531;-64
2023/04/19 13:24:00;;;;;;;23.90;15.80;;;;;;;10.40;79.66;95129.79;106777;1276;25268;-64
2023/04/19 13:26:29;;;;;;;24.90;16.70;;;;;;;10.39;80.12;95132.44;106655;1276;25403;-64
2023/04/19 13:28:57;;;;;;;22.60;14.70;;;;;;;10.37;80.26;95130.91;106580;1276;25392;-67
2023/04/19 13:31:25;;;;;;;21.60;14.50;;;;;;;10.40;79.85;95131.18;106528;1275;24344;-64
2023/04/19 13:33:54;;;;;;;24.90;14.80;;;;;;;10.44;80.15;95130.76;106647;1276;23917;-64
2023/04/19 13:36:22;;;;;;;28.30;17.90;;;;;;;10.45;80.34;95133.34;106578;1274;24352;-64
2023/04/19 13:38:50;;;;;;;25.00;17.30;;;;;;;10.49;80.66;95130.63;106575;1275;26500;-68
2023/04/19 13:41:19;;;;;;;28.40;18.30;;;;;;;10.52;80.53;95131.25;106581;1276;25443;-64
2023/04/19 13:43:47;;;;;;;18.90;13.60;;;;;;;10.54;80.50;95129.42;106714;1276;22531;-64
2023/04/19 13:46:15;;;;;;;17.60;12.30;;;;;;;10.54;80.22;95128.38;106489;1276;24470;-64
2023/04/19 13:48:44;;;;;;;22.70;13.20;;;;;;;10.54;80.10;95131.88;106682;1276;22601;-64
2023/04/19 13:51:12;;;;;;;22.20;14.40;;;;;;;10.53;79.99;95127.51;106738;1270;24294;-64
2023/04/19 13:53:40;;;;;;;22.40;15.50;;;;;;;10.59;80.34;95126.13;106810;1276;22665;-64
2023/04/19 13:56:09;;;;;;;26.00;15.60;;;;;;;10.63;80.38;95122.89;106764;1276;25391;-64
2023/04/19 13:58:37;;;;;;;20.40;13.50;;;;;;;10.73;80.64;95122.94;106597;1276;24232;-64
2023/04/19 14:01:05;;;;;;;16.20;11.50;;;;;;;10.86;80.40;95124.18;106656;1276;25393;-65
2023/04/19 14:03:34;;;;;;;18.30;12.80;;;;;;;10.97;80.06;95119.84;106749;1276;23150;-64
2023/04/19 14:06:03;;;;;;;19.70;14.00;;;;;;;11.06;79.57;95122.73;106636;1276;22539;-64
2023/04/19 14:08:31;;;;;;;21.50;14.60;;;;;;;11.14;79.30;95120.42;106812;1276;24226;-64
2023/04/19 14:11:00;;;;;;;18.90;14.20;;;;;;;11.14;79.01;95123.21;106625;1276;22638;-64
2023/04/19 14:13:28;;;;;;;17.70;12.90;;;;;;;11.12;78.90;95115.19;106662;1275;22772;-64
2023/04/19 14:15:56;;;;;;;18.90;13.40;;;;;;;11.12;78.70;95113.94;106687;1276;25287;-64
2023/04/19 14:18:24;;;;;;;19.90;13.90;;;;;;;11.03;78.29;95114.38;106812;1276;23016;-65
2023/04/19 14:20:54;;;;;;;21.20;16.20;;;;;;;10.92;78.63;95113.30;106759;1276;22654;-64
2023/04/19 14:23:22;;;;;;;21.90;15.50;;;;;;;10.95;78.94;95111.78;106549;1276;22527;-64
2023/04/19 14:25:50;;;;;;;18.10;13.30;;;;;;;11.02;79.22;95114.57;106571;1276;23265;-64
2023/04/19 14:28:18;;;;;;;19.70;13.90;;;;;;;11.10;79.14;95111.02;106589;1276;25271;-64
2023/04/19 14:30:46;;;;;;;119.60;72.70;;;;;;;11.13;79.00;95113.05;106759;1276;22573;-65
2023/04/19 14:33:15;;;;;;;23.70;17.40;;;;;;;11.09;78.69;95113.69;106685;1276;24053;-64
2023/04/19 14:35:43;;;;;;;20.00;14.30;;;;;;;11.07;78.78;95116.75;106732;1276;22555;-64
2023/04/19 14:38:11;;;;;;;19.90;13.00;;;;;;;11.05;79.39;95116.61;106803;1276;22644;-64
2023/04/19 14:40:39;;;;;;;19.50;14.10;;;;;;;11.02;79.48;95114.92;106602;1276;24373;-64
2023/04/19 14:43:13;;;;;;;20.40;14.70;;;;;;;10.96;79.58;95122.15;106543;1265;22554;-64
2023/04/19 14:45:41;;;;;;;22.30;14.90;;;;;;;10.90;80.01;95125.30;106594;1276;22516;-64
2023/04/19 14:48:10;;;;;;;20.60;14.90;;;;;;;10.89;79.94;95129.37;106472;1276;22789;-64
2023/04/19 14:50:38;;;;;;;25.60;18.30;;;;;;;10.93;79.89;95125.23;106556;1276;24080;-64
2023/04/19 14:53:08;;;;;;;22.60;16.20;;;;;;;10.95;79.57;95121.29;106599;1276;22941;-64
2023/04/19 14:55:37;;;;;;;18.50;13.30;;;;;;;11.01;79.58;95122.20;106599;1276;24209;-64
2023/04/19 14:58:05;;;;;;;18.90;13.90;;;;;;;11.02;79.68;95121.97;106534;1276;22532;-64
2023/04/19 15:00:33;;;;;;;23.10;15.80;;;;;;;11.04;79.73;95122.45;106774;1276;22533;-64
2023/04/19 15:03:02;;;;;;;23.30;15.80;;;;;;;11.10;79.42;95122.83;106839;1276;25507;-68
2023/04/19 15:05:33;;;;;;;22.00;14.00;;;;;;;11.14;79.48;95125.35;106787;1276;22527;-65
2023/04/19 15:08:02;;;;;;;27.90;14.20;;;;;;;11.19;79.33;95125.02;106706;1276;22754;-64
2023/04/19 15:10:30;;;;;;;28.50;18.30;;;;;;;11.26;78.99;95118.30;106823;1276;25351;-64
2023/04/19 15:12:58;;;;;;;23.40;15.20;;;;;;;11.33;78.60;95121.46;106765;1276;22769;-64
2023/04/19 15:15:27;;;;;;;22.50;14.70;;;;;;;11.33;77.85;95121.27;106718;1276;22524;-65
2023/04/19 15:17:55;;;;;;;44.00;19.70;;;;;;;11.35;77.48;95123.52;106627;1276;24702;-64
2023/04/19 15:20:24;;;;;;;521.10;231.60;;;;;;;11.42;77.99;95124.89;106822;1261;22739;-64
2023/04/19 15:22:52;;;;;;;110.20;48.30;;;;;;;11.49;77.77;95126.98;106532;1276;22586;-66
2023/04/19 15:25:20;;;;;;;47.80;19.50;;;;;;;11.56;77.60;95120.25;106568;1276;24199;-65
2023/04/19 15:27:48;;;;;;;102.50;39.00;;;;;;;11.64;77.51;95122.81;106529;1276;25303;-64
2023/04/19 15:30:16;;;;;;;50.90;20.70;;;;;;;11.71;77.47;95127.01;106481;1276;24371;-64
2023/04/19 15:32:45;;;;;;;23.20;11.10;;;;;;;11.81;77.17;95127.23;106672;1276;22556;-65
2023/04/19 15:35:14;;;;;;;13.80;7.60;;;;;;;11.89;76.90;95126.13;106809;1276;22527;-65
2023/04/19 15:37:42;;;;;;;10.80;7.10;;;;;;;11.92;75.54;95125.70;106555;1276;25451;-65
2023/04/19 15:40:13;;;;;;;10.80;6.60;;;;;;;11.83;75.33;95126.13;106711;1276;24235;-65
2023/04/19 15:42:41;;;;;;;19.90;10.60;;;;;;;11.82;75.73;95127.36;106674;1276;23909;-65
2023/04/19 15:45:09;;;;;;;217.90;77.60;;;;;;;11.86;75.32;95132.39;106698;1276;22473;-67
2023/04/19 15:47:38;;;;;;;51.20;23.20;;;;;;;11.82;74.75;95133.20;106546;1264;22545;-66
2023/04/19 15:50:08;;;;;;;13.10;8.90;;;;;;;11.76;75.11;95135.84;106584;1276;22643;-65
2023/04/19 15:52:36;;;;;;;377.40;111.90;;;;;;;11.74;75.23;95132.23;106758;1265;22534;-66
2023/04/19 15:55:05;;;;;;;396.10;128.80;;;;;;;11.70;75.16;95137.27;106794;1276;22557;-65
2023/04/19 15:57:33;;;;;;;62.00;24.60;;;;;;;11.64;75.42;95133.02;106836;1268;25396;-65
2023/04/19 16:00:02;;;;;;;61.00;21.40;;;;;;;11.60;75.57;95137.58;106698;1276;24259;-65
2023/04/19 16:02:39;;;;;;;27.90;13.90;;;;;;;11.51;75.92;95137.66;106566;1276;22554;-65
2023/04/19 16:05:08;;;;;;;18.10;10.90;;;;;;;11.40;76.73;95138.15;106797;1265;22643;-65
2023/04/19 16:07:36;;;;;;;16.30;10.60;;;;;;;11.30;77.84;95139.16;106777;1276;22603;-65
2023/04/19 16:10:06;;;;;;;16.90;10.50;;;;;;;11.19;77.28;95139.10;106679;1276;23152;-65
2023/04/19 16:12:35;;;;;;;20.40;12.00;;;;;;;11.11;77.44;95140.75;106607;1276;25352;-65
2023/04/19 16:15:04;;;;;;;19.80;12.10;;;;;;;11.05;78.14;95140.02;106535;1276;22568;-65
2023/04/19 16:17:32;;;;;;;22.70;12.50;;;;;;;10.99;78.64;95142.83;106545;1276;24373;-65
2023/04/19 16:20:00;;;;;;;19.90;13.10;;;;;;;10.94;78.85;95145.77;106567;1276;25224;-65
2023/04/19 16:22:29;;;;;;;17.90;11.80;;;;;;;10.90;78.88;95143.80;106531;1276;24407;-66
2023/04/19 16:24:57;;;;;;;20.80;12.70;;;;;;;10.84;79.03;95143.58;106529;1276;22639;-65
2023/04/19 16:27:26;;;;;;;16.80;12.70;;;;;;;10.78;79.82;95145.50;106552;1276;24259;-65
2023/04/19 16:29:54;;;;;;;20.50;13.30;;;;;;;10.74;79.37;95146.84;106700;1276;25105;-65
2023/04/19 16:32:22;;;;;;;23.30;12.50;;;;;;;10.70;79.62;95145.54;106553;1276;23156;-65
2023/04/19 16:34:50;;;;;;;19.40;11.70;;;;;;;10.68;80.75;95144.36;106602;1276;22560;-65
2023/04/19 16:37:19;;;;;;;20.80;11.50;;;;;;;10.67;80.74;95148.61;106594;1276;22526;-65
2023/04/19 16:39:47;;;;;;;18.60;12.40;;;;;;;10.70;81.35;95151.69;106754;1276;22650;-65
2023/04/19 16:42:15;;;;;;;19.40;12.80;;;;;;;10.68;81.69;95151.04;106766;1276;22585;-65
2023/04/19 16:44:43;;;;;;;20.70;13.90;;;;;;;10.69;81.38;95153.84;106651;1270;25404;-65
2023/04/19 16:47:11;;;;;;;18.70;13.80;;;;;;;10.73;81.73;95153.55;106462;1276;22657;-65
2023/04/19 16:49:39;;;;;;;23.30;15.10;;;;;;;10.80;81.48;95157.59;106543;1276;22525;-65
2023/04/19 16:52:08;;;;;;;20.70;13.70;;;;;;;10.91;81.46;95159.61;106770;1276;25326;-65
2023/04/19 16:54:36;;;;;;;31.70;19.10;;;;;;;10.94;80.88;95159.16;106609;1276;22540;-65